createdAt,value
2017-07-03T00:00:07.375Z,0
2017-07-03T00:01:07.079Z,0
2017-07-03T00:02:06.706Z,0
2017-07-03T00:03:07.032Z,0
2017-07-03T00:04:07.351Z,0
2017-07-03T00:05:07.033Z,0
2017-07-03T00:06:07.002Z,0
2017-07-03T00:07:06.686Z,0
2017-07-03T00:08:07.002Z,0
2017-07-03T00:09:07.009Z,0
2017-07-03T00:10:06.987Z,0
2017-07-03T00:11:06.981Z,0
2017-07-03T00:12:06.333Z,0
2017-07-03T00:13:07.291Z,0
2017-07-03T00:14:06.973Z,0
2017-07-03T00:15:06.317Z,0
2017-07-03T00:16:07.275Z,0
2017-07-03T00:17:07.278Z,0
2017-07-03T00:18:06.616Z,0
2017-07-03T00:19:07.260Z,0
2017-07-03T00:20:06.935Z,0
2017-07-03T00:21:07.243Z,0
2017-07-03T00:22:07.242Z,0
2017-07-03T00:23:06.946Z,0
2017-07-03T00:24:06.913Z,0
2017-07-03T00:25:06.584Z,0
2017-07-03T00:26:07.240Z,0
2017-07-03T00:27:07.247Z,0
2017-07-03T00:28:06.898Z,0
2017-07-03T00:29:07.200Z,0
2017-07-03T00:30:06.890Z,0
2017-07-03T00:31:06.572Z,0
2017-07-03T00:32:06.564Z,0
2017-07-03T00:33:06.867Z,0
2017-07-03T00:34:06.536Z,0
2017-07-03T00:35:07.188Z,0
2017-07-03T00:36:06.868Z,0
2017-07-03T00:37:07.318Z,0
2017-07-03T00:38:06.836Z,0
2017-07-03T00:39:07.145Z,0
2017-07-03T00:40:06.824Z,0
2017-07-03T00:41:06.497Z,0
2017-07-03T00:42:07.153Z,0
2017-07-03T00:43:06.806Z,0
2017-07-03T00:44:06.851Z,0
2017-07-03T00:45:06.826Z,0
2017-07-03T00:46:07.133Z,0
2017-07-03T00:47:07.115Z,0
2017-07-03T00:48:06.783Z,0
2017-07-03T00:49:06.464Z,0
2017-07-03T00:50:06.765Z,0
2017-07-03T00:51:06.760Z,0
2017-07-03T00:52:06.774Z,0
2017-07-03T00:53:06.129Z,0
2017-07-03T00:54:07.101Z,0
2017-07-03T00:55:07.090Z,0
2017-07-03T00:56:06.776Z,0
2017-07-03T00:57:07.046Z,0
2017-07-03T00:58:07.081Z,0
2017-07-03T00:59:06.748Z,0
2017-07-03T01:00:06.711Z,0
2017-07-03T01:01:07.072Z,0
2017-07-03T01:02:07.024Z,0
2017-07-03T01:03:07.020Z,0
2017-07-03T01:04:06.365Z,0
2017-07-03T01:05:06.711Z,0
2017-07-03T01:06:06.371Z,0
2017-07-03T01:07:07.013Z,0
2017-07-03T01:08:07.007Z,0
2017-07-03T01:09:06.676Z,0
2017-07-03T01:10:06.997Z,0
2017-07-03T01:11:06.343Z,0
2017-07-03T01:12:06.962Z,0
2017-07-03T01:13:06.956Z,0
2017-07-03T01:14:06.306Z,0
2017-07-03T01:15:05.993Z,0
2017-07-03T01:16:06.947Z,0
2017-07-03T01:17:06.614Z,0
2017-07-03T01:18:06.928Z,0
2017-07-03T01:19:06.939Z,0
2017-07-03T01:20:06.939Z,0
2017-07-03T01:21:06.628Z,0
2017-07-03T01:22:06.590Z,0
2017-07-03T01:23:06.597Z,0
2017-07-03T01:24:06.281Z,0
2017-07-03T01:25:06.573Z,0
2017-07-03T01:26:06.264Z,0
2017-07-03T01:27:06.917Z,0
2017-07-03T01:28:06.567Z,0
2017-07-03T01:29:06.895Z,0
2017-07-03T01:30:06.539Z,0
2017-07-03T01:31:06.215Z,0
2017-07-03T01:32:06.544Z,0
2017-07-03T01:33:06.528Z,0
2017-07-03T01:34:06.836Z,0
2017-07-03T01:35:06.555Z,0
2017-07-03T01:36:06.839Z,0
2017-07-03T01:37:06.847Z,0
2017-07-03T01:38:06.492Z,0
2017-07-03T01:39:06.861Z,0
2017-07-03T01:40:06.511Z,0
2017-07-03T01:41:06.792Z,0
2017-07-03T01:42:06.829Z,0
2017-07-03T01:43:06.147Z,0
2017-07-03T01:44:06.784Z,0
2017-07-03T01:45:06.132Z,0
2017-07-03T01:46:06.778Z,0
2017-07-03T01:47:06.794Z,0
2017-07-03T01:48:06.480Z,0
2017-07-03T01:49:06.761Z,0
2017-07-03T01:50:06.429Z,0
2017-07-03T01:51:06.434Z,0
2017-07-03T01:52:06.433Z,0
2017-07-03T01:53:06.421Z,0
2017-07-03T01:54:06.118Z,0
2017-07-03T01:55:06.077Z,0
2017-07-03T01:56:06.768Z,0
2017-07-03T01:57:06.710Z,0
2017-07-03T01:58:06.399Z,0
2017-07-03T01:59:06.436Z,0
2017-07-03T02:00:06.694Z,0
2017-07-03T02:01:06.409Z,0
2017-07-03T02:02:06.386Z,0
2017-07-03T02:03:06.036Z,0
2017-07-03T02:04:06.664Z,0
2017-07-03T02:05:06.656Z,0
2017-07-03T02:06:06.329Z,0
2017-07-03T02:07:06.660Z,0
2017-07-03T02:08:06.326Z,0
2017-07-03T02:09:06.312Z,0
2017-07-03T02:10:06.314Z,0
2017-07-03T02:11:06.305Z,0
2017-07-03T02:12:06.323Z,0
2017-07-03T02:13:05.969Z,0
2017-07-03T02:14:06.633Z,0
2017-07-03T02:15:06.602Z,0
2017-07-03T02:16:06.281Z,0
2017-07-03T02:17:06.587Z,0
2017-07-03T02:18:05.941Z,0
2017-07-03T02:19:05.955Z,0
2017-07-03T02:20:06.247Z,0
2017-07-03T02:21:06.243Z,0
2017-07-03T02:22:06.558Z,0
2017-07-03T02:23:05.590Z,0
2017-07-03T02:24:06.241Z,0
2017-07-03T02:25:06.240Z,0
2017-07-03T02:26:06.214Z,0
2017-07-03T02:27:06.223Z,0
2017-07-03T02:28:05.936Z,0
2017-07-03T02:29:06.218Z,0
2017-07-03T02:30:06.224Z,0
2017-07-03T02:31:05.860Z,0
2017-07-03T02:32:05.857Z,0
2017-07-03T02:33:06.188Z,0
2017-07-03T02:34:06.488Z,4
2017-07-03T02:35:06.170Z,0
2017-07-03T02:36:06.485Z,4
2017-07-03T02:37:06.503Z,8
2017-07-03T02:38:05.840Z,8
2017-07-03T02:39:06.149Z,8
2017-07-03T02:40:06.148Z,8
2017-07-03T02:41:06.450Z,8
2017-07-03T02:42:06.117Z,8
2017-07-03T02:43:06.452Z,16
2017-07-03T02:44:05.786Z,20
2017-07-03T02:45:06.423Z,24
2017-07-03T02:46:06.101Z,24
2017-07-03T02:47:06.408Z,24
2017-07-03T02:48:06.093Z,24
2017-07-03T02:49:05.760Z,20
2017-07-03T02:50:06.091Z,20
2017-07-03T02:51:06.074Z,24
2017-07-03T02:52:06.392Z,32
2017-07-03T02:53:06.425Z,36
2017-07-03T02:54:06.374Z,36
2017-07-03T02:55:06.041Z,40
2017-07-03T02:56:06.376Z,44
2017-07-03T02:57:06.380Z,52
2017-07-03T02:58:06.030Z,56
2017-07-03T02:59:05.691Z,64
2017-07-03T03:00:06.331Z,68
2017-07-03T03:01:06.017Z,76
2017-07-03T03:02:05.999Z,88
2017-07-03T03:03:06.312Z,112
2017-07-03T03:04:06.324Z,128
2017-07-03T03:05:05.664Z,140
2017-07-03T03:06:06.291Z,140
2017-07-03T03:07:05.963Z,148
2017-07-03T03:08:05.342Z,156
2017-07-03T03:09:05.948Z,156
2017-07-03T03:10:06.007Z,140
2017-07-03T03:11:06.258Z,116
2017-07-03T03:12:05.646Z,92
2017-07-03T03:13:05.612Z,96
2017-07-03T03:14:05.290Z,96
2017-07-03T03:15:06.240Z,116
2017-07-03T03:16:06.226Z,152
2017-07-03T03:17:06.356Z,216
2017-07-03T03:18:05.907Z,240
2017-07-03T03:19:05.913Z,228
2017-07-03T03:20:06.201Z,184
2017-07-03T03:21:06.210Z,208
2017-07-03T03:22:05.888Z,280
2017-07-03T03:23:06.216Z,320
2017-07-03T03:24:05.872Z,304
2017-07-03T03:25:05.866Z,284
2017-07-03T03:26:05.881Z,276
2017-07-03T03:27:06.161Z,348
2017-07-03T03:28:05.877Z,392
2017-07-03T03:29:06.159Z,344
2017-07-03T03:30:05.510Z,324
2017-07-03T03:31:05.493Z,324
2017-07-03T03:32:05.897Z,292
2017-07-03T03:33:05.834Z,388
2017-07-03T03:34:06.125Z,492
2017-07-03T03:35:05.807Z,528
2017-07-03T03:36:06.141Z,644
2017-07-03T03:37:05.784Z,644
2017-07-03T03:38:05.817Z,756
2017-07-03T03:39:06.089Z,880
2017-07-03T03:40:06.094Z,816
2017-07-03T03:41:06.122Z,816
2017-07-03T03:42:05.427Z,860
2017-07-03T03:43:05.761Z,880
2017-07-03T03:44:05.414Z,900
2017-07-03T03:45:06.091Z,920
2017-07-03T03:46:06.074Z,1012
2017-07-03T03:47:05.734Z,1168
2017-07-03T03:48:05.730Z,1324
2017-07-03T03:49:06.045Z,1412
2017-07-03T03:50:06.039Z,1560
2017-07-03T03:51:06.017Z,1640
2017-07-03T03:52:05.711Z,1564
2017-07-03T03:53:05.707Z,1672
2017-07-03T03:54:06.017Z,2052
2017-07-03T03:55:05.369Z,2364
2017-07-03T03:56:05.666Z,2616
2017-07-03T03:57:05.993Z,2980
2017-07-03T03:58:05.661Z,3084
2017-07-03T03:59:05.647Z,3124
2017-07-03T04:00:05.967Z,3568
2017-07-03T04:01:05.985Z,3780
2017-07-03T04:02:05.632Z,3772
2017-07-03T04:03:05.950Z,3768
2017-07-03T04:04:05.951Z,3572
2017-07-03T04:05:05.928Z,3304
2017-07-03T04:06:05.276Z,3236
2017-07-03T04:07:05.597Z,3112
2017-07-03T04:08:05.597Z,2720
2017-07-03T04:09:05.950Z,2116
2017-07-03T04:10:05.257Z,1748
2017-07-03T04:11:05.255Z,1552
2017-07-03T04:12:05.573Z,1520
2017-07-03T04:13:05.592Z,1324
2017-07-03T04:14:05.600Z,1112
2017-07-03T04:15:05.869Z,1104
2017-07-03T04:16:05.890Z,1224
2017-07-03T04:17:05.619Z,1416
2017-07-03T04:18:05.533Z,1496
2017-07-03T04:19:05.532Z,1612
2017-07-03T04:20:05.200Z,1656
2017-07-03T04:21:05.196Z,1376
2017-07-03T04:22:05.836Z,1140
2017-07-03T04:23:05.859Z,1172
2017-07-03T04:24:05.188Z,1268
2017-07-03T04:25:05.174Z,1376
2017-07-03T04:26:05.499Z,1484
2017-07-03T04:27:05.811Z,1416
2017-07-03T04:28:05.202Z,1408
2017-07-03T04:29:05.494Z,1524
2017-07-03T04:30:05.467Z,1516
2017-07-03T04:31:05.463Z,1400
2017-07-03T04:32:05.459Z,1400
2017-07-03T04:33:05.842Z,1764
2017-07-03T04:34:05.774Z,2088
2017-07-03T04:35:05.454Z,2284
2017-07-03T04:36:05.455Z,2604
2017-07-03T04:37:05.455Z,3228
2017-07-03T04:38:05.748Z,3736
2017-07-03T04:39:05.124Z,3872
2017-07-03T04:40:05.410Z,3936
2017-07-03T04:41:05.746Z,3996
2017-07-03T04:42:05.406Z,4268
2017-07-03T04:43:05.391Z,4660
2017-07-03T04:44:05.067Z,5184
2017-07-03T04:45:05.064Z,5608
2017-07-03T04:46:05.386Z,5716
2017-07-03T04:47:05.050Z,5736
2017-07-03T04:48:05.382Z,5620
2017-07-03T04:49:05.684Z,5264
2017-07-03T04:50:05.360Z,5032
2017-07-03T04:51:05.706Z,5192
2017-07-03T04:52:05.672Z,6112
2017-07-03T04:53:05.025Z,6240
2017-07-03T04:54:05.678Z,6332
2017-07-03T04:55:05.347Z,7828
2017-07-03T04:56:05.328Z,9580
2017-07-03T04:57:05.649Z,10740
2017-07-03T04:58:05.321Z,11172
2017-07-03T04:59:05.331Z,8588
2017-07-03T05:00:05.326Z,5184
2017-07-03T05:01:05.327Z,4420
2017-07-03T05:02:05.317Z,4548
2017-07-03T05:03:05.632Z,5056
2017-07-03T05:04:05.302Z,4900
2017-07-03T05:05:05.611Z,4868
2017-07-03T05:06:05.288Z,5052
2017-07-03T05:07:05.625Z,6056
2017-07-03T05:08:05.344Z,6212
2017-07-03T05:09:05.305Z,5492
2017-07-03T05:10:04.959Z,5200
2017-07-03T05:11:05.275Z,5520
2017-07-03T05:12:04.928Z,6448
2017-07-03T05:13:05.570Z,8052
2017-07-03T05:14:05.251Z,8232
2017-07-03T05:15:04.925Z,7212
2017-07-03T05:16:05.579Z,6328
2017-07-03T05:17:05.237Z,5968
2017-07-03T05:18:04.584Z,5868
2017-07-03T05:19:05.222Z,6468
2017-07-03T05:20:05.541Z,6968
2017-07-03T05:21:05.548Z,6968
2017-07-03T05:22:05.535Z,6704
2017-07-03T05:23:05.214Z,6304
2017-07-03T05:24:05.528Z,6484
2017-07-03T05:25:05.204Z,6580
2017-07-03T05:26:04.866Z,6840
2017-07-03T05:27:05.506Z,7868
2017-07-03T05:28:04.857Z,8476
2017-07-03T05:29:04.532Z,9848
2017-07-03T05:30:05.179Z,10772
2017-07-03T05:31:05.496Z,9880
2017-07-03T05:32:04.848Z,10052
2017-07-03T05:33:05.490Z,9888
2017-07-03T05:34:05.157Z,10196
2017-07-03T05:35:05.160Z,10388
2017-07-03T05:36:04.822Z,10720
2017-07-03T05:37:05.143Z,11296
2017-07-03T05:38:05.159Z,10752
2017-07-03T05:39:04.818Z,9020
2017-07-03T05:40:04.814Z,8272
2017-07-03T05:41:05.452Z,7216
2017-07-03T05:42:05.121Z,5764
2017-07-03T05:43:05.443Z,4860
2017-07-03T05:44:04.478Z,4936
2017-07-03T05:45:05.431Z,5120
2017-07-03T05:46:04.789Z,5708
2017-07-03T05:47:05.106Z,7692
2017-07-03T05:48:05.117Z,8136
2017-07-03T05:49:05.096Z,7868
2017-07-03T05:50:05.109Z,7412
2017-07-03T05:51:05.409Z,6196
2017-07-03T05:52:05.086Z,5464
2017-07-03T05:53:05.079Z,4984
2017-07-03T05:54:05.401Z,4992
2017-07-03T05:55:04.754Z,4976
2017-07-03T05:56:05.393Z,4884
2017-07-03T05:57:05.386Z,5184
2017-07-03T05:58:05.064Z,5068
2017-07-03T05:59:05.063Z,5556
2017-07-03T06:00:05.059Z,6560
2017-07-03T06:01:04.734Z,7748
2017-07-03T06:02:05.047Z,8008
2017-07-03T06:03:04.403Z,8036
2017-07-03T06:04:05.362Z,7756
2017-07-03T06:05:05.362Z,7280
2017-07-03T06:06:05.356Z,6988
2017-07-03T06:07:05.043Z,7572
2017-07-03T06:08:05.022Z,9760
2017-07-03T06:09:04.701Z,11248
2017-07-03T06:10:05.335Z,8812
2017-07-03T06:11:05.017Z,6552
2017-07-03T06:12:05.014Z,5624
2017-07-03T06:13:05.023Z,5388
2017-07-03T06:14:05.037Z,5484
2017-07-03T06:15:05.319Z,5572
2017-07-03T06:16:05.348Z,5684
2017-07-03T06:17:05.309Z,6048
2017-07-03T06:18:05.310Z,5996
2017-07-03T06:19:04.990Z,5908
2017-07-03T06:20:04.979Z,5908
2017-07-03T06:21:04.656Z,6188
2017-07-03T06:22:05.303Z,6492
2017-07-03T06:23:04.647Z,6448
2017-07-03T06:24:05.290Z,6500
2017-07-03T06:25:04.970Z,6680
2017-07-03T06:26:04.311Z,6836
2017-07-03T06:27:04.950Z,6732
2017-07-03T06:28:04.960Z,7012
2017-07-03T06:29:04.633Z,7024
2017-07-03T06:30:05.261Z,7856
2017-07-03T06:31:04.937Z,8508
2017-07-03T06:32:04.977Z,8808
2017-07-03T06:33:04.929Z,9436
2017-07-03T06:34:04.602Z,10508
2017-07-03T06:35:04.930Z,10812
2017-07-03T06:36:04.925Z,12196
2017-07-03T06:37:05.247Z,14324
2017-07-03T06:38:05.231Z,15792
2017-07-03T06:39:05.229Z,20192
2017-07-03T06:40:04.907Z,26080
2017-07-03T06:41:05.226Z,32064
2017-07-03T06:42:05.232Z,37664
2017-07-03T06:43:04.919Z,11872
2017-07-03T06:44:04.899Z,5360
2017-07-03T06:45:05.260Z,4668
2017-07-03T06:46:05.230Z,4252
2017-07-03T06:47:04.882Z,3888
2017-07-03T06:48:05.202Z,4000
2017-07-03T06:49:05.216Z,3900
2017-07-03T06:50:04.874Z,3932
2017-07-03T06:51:04.876Z,4324
2017-07-03T06:52:04.873Z,5180
2017-07-03T06:53:05.193Z,6384
2017-07-03T06:54:04.894Z,8352
2017-07-03T06:55:05.185Z,9852
2017-07-03T06:56:04.911Z,10480
2017-07-03T06:57:05.195Z,11256
2017-07-03T06:58:05.183Z,11628
2017-07-03T06:59:04.845Z,8604
2017-07-03T07:00:05.186Z,8848
2017-07-03T07:01:04.537Z,11368
2017-07-03T07:02:04.525Z,49696
2017-07-03T07:03:05.160Z,28256
2017-07-03T07:04:04.526Z,11488
2017-07-03T07:05:05.153Z,8756
2017-07-03T07:06:04.829Z,8168
2017-07-03T07:07:04.847Z,45280
2017-07-03T07:08:04.838Z,51456
2017-07-03T07:09:04.504Z,48992
2017-07-03T07:10:04.180Z,48640
2017-07-03T07:11:05.190Z,49152
2017-07-03T07:12:05.150Z,52320
2017-07-03T07:13:04.826Z,53120
2017-07-03T07:14:04.816Z,52032
2017-07-03T07:15:04.813Z,50272
2017-07-03T07:16:04.866Z,52128
2017-07-03T07:17:04.812Z,48448
2017-07-03T07:18:04.505Z,7580
2017-07-03T07:19:04.816Z,6632
2017-07-03T07:20:05.136Z,6564
2017-07-03T07:21:05.143Z,28640
2017-07-03T07:22:04.836Z,9116
2017-07-03T07:23:05.162Z,11864
2017-07-03T07:24:05.159Z,9524
2017-07-03T07:25:05.152Z,12692
2017-07-03T07:26:05.165Z,61184
2017-07-03T07:27:04.856Z,62144
2017-07-03T07:28:05.147Z,60576
2017-07-03T07:29:05.148Z,59680
2017-07-03T07:30:04.839Z,56928
2017-07-03T07:31:04.821Z,54592
2017-07-03T07:32:04.507Z,56256
2017-07-03T07:33:05.191Z,59200
2017-07-03T07:34:05.150Z,57536
2017-07-03T07:35:04.851Z,56992
2017-07-03T07:36:04.544Z,53888
2017-07-03T07:37:04.844Z,52384
2017-07-03T07:38:05.159Z,54272
2017-07-03T07:39:05.166Z,42720
2017-07-03T07:40:04.561Z,29472
2017-07-03T07:41:04.871Z,66944
2017-07-03T07:42:05.175Z,59072
2017-07-03T07:43:05.184Z,61920
2017-07-03T07:44:05.182Z,13352
2017-07-03T07:45:04.894Z,9832
2017-07-03T07:46:04.869Z,11284
2017-07-03T07:47:05.194Z,10600
2017-07-03T07:48:04.872Z,12664
2017-07-03T07:49:04.880Z,47040
2017-07-03T07:50:05.216Z,12064
2017-07-03T07:51:05.225Z,13396
2017-07-03T07:52:04.905Z,18112
2017-07-03T07:53:04.937Z,16000
2017-07-03T07:54:04.578Z,17312
2017-07-03T07:55:05.216Z,15952
2017-07-03T07:56:05.220Z,14576
2017-07-03T07:57:05.243Z,12288
2017-07-03T07:58:04.584Z,12984
2017-07-03T07:59:04.902Z,14692
2017-07-03T08:00:04.926Z,14648
2017-07-03T08:01:04.906Z,14184
2017-07-03T08:02:05.243Z,10268
2017-07-03T08:03:04.909Z,9216
2017-07-03T08:04:04.592Z,8764
2017-07-03T08:05:04.913Z,8044
2017-07-03T08:06:04.912Z,7360
2017-07-03T08:07:04.954Z,7220
2017-07-03T08:08:04.931Z,7712
2017-07-03T08:09:04.915Z,8036
2017-07-03T08:10:04.606Z,7140
2017-07-03T08:11:04.932Z,6612
2017-07-03T08:12:04.940Z,6188
2017-07-03T08:13:04.927Z,5920
2017-07-03T08:14:05.258Z,5700
2017-07-03T08:15:04.915Z,5520
2017-07-03T08:16:05.265Z,5352
2017-07-03T08:17:04.920Z,5256
2017-07-03T08:18:04.601Z,5256
2017-07-03T08:19:04.599Z,5348
2017-07-03T08:20:04.927Z,5504
2017-07-03T08:21:04.919Z,5812
2017-07-03T08:22:04.942Z,6156
2017-07-03T08:23:05.271Z,6648
2017-07-03T08:24:04.965Z,6824
2017-07-03T08:25:04.947Z,6984
2017-07-03T08:26:05.252Z,6868
2017-07-03T08:27:05.265Z,6924
2017-07-03T08:28:04.931Z,7308
2017-07-03T08:29:04.926Z,8132
2017-07-03T08:30:04.943Z,8976
2017-07-03T08:31:05.257Z,10688
2017-07-03T08:32:05.251Z,12312
2017-07-03T08:33:05.251Z,11304
2017-07-03T08:34:05.288Z,9612
2017-07-03T08:35:04.605Z,7860
2017-07-03T08:36:05.241Z,6504
2017-07-03T08:37:04.625Z,6124
2017-07-03T08:38:04.927Z,6024
2017-07-03T08:39:04.621Z,5788
2017-07-03T08:40:04.929Z,6196
2017-07-03T08:41:04.595Z,6880
2017-07-03T08:42:05.266Z,7168
2017-07-03T08:43:05.244Z,7972
2017-07-03T08:44:04.611Z,8896
2017-07-03T08:45:04.942Z,10188
2017-07-03T08:46:04.935Z,11428
2017-07-03T08:47:04.915Z,13488
2017-07-03T08:48:05.253Z,14188
2017-07-03T08:49:04.931Z,15188
2017-07-03T08:50:05.236Z,15320
2017-07-03T08:51:04.919Z,17248
2017-07-03T08:52:04.932Z,16960
2017-07-03T08:53:04.602Z,16800
2017-07-03T08:54:05.238Z,14352
2017-07-03T08:55:04.610Z,13620
2017-07-03T08:56:04.934Z,12528
2017-07-03T08:57:04.269Z,11544
2017-07-03T08:58:05.231Z,11780
2017-07-03T08:59:05.231Z,11388
2017-07-03T09:00:04.613Z,11296
2017-07-03T09:01:04.608Z,9712
2017-07-03T09:02:05.231Z,7836
2017-07-03T09:03:04.592Z,6596
2017-07-03T09:04:05.281Z,5924
2017-07-03T09:05:05.225Z,5408
2017-07-03T09:06:04.611Z,4940
2017-07-03T09:07:04.579Z,4948
2017-07-03T09:08:05.228Z,5184
2017-07-03T09:09:04.596Z,5368
2017-07-03T09:10:04.592Z,6236
2017-07-03T09:11:05.238Z,6168
2017-07-03T09:12:04.906Z,5684
2017-07-03T09:13:05.237Z,5364
2017-07-03T09:14:05.234Z,5060
2017-07-03T09:15:04.578Z,4948
2017-07-03T09:16:05.218Z,4852
2017-07-03T09:17:05.222Z,4780
2017-07-03T09:18:05.219Z,4800
2017-07-03T09:19:05.214Z,5096
2017-07-03T09:20:04.919Z,5396
2017-07-03T09:21:04.571Z,6224
2017-07-03T09:22:05.211Z,7864
2017-07-03T09:23:04.891Z,9360
2017-07-03T09:24:04.887Z,11076
2017-07-03T09:25:04.560Z,12360
2017-07-03T09:26:04.567Z,13160
2017-07-03T09:27:04.564Z,12720
2017-07-03T09:28:05.213Z,13064
2017-07-03T09:29:04.888Z,14196
2017-07-03T09:30:04.895Z,15164
2017-07-03T09:31:04.883Z,14928
2017-07-03T09:32:05.254Z,14824
2017-07-03T09:33:04.567Z,14308
2017-07-03T09:34:04.560Z,14772
2017-07-03T09:35:05.202Z,13684
2017-07-03T09:36:04.882Z,14436
2017-07-03T09:37:04.553Z,14372
2017-07-03T09:38:04.576Z,14276
2017-07-03T09:39:04.879Z,13864
2017-07-03T09:40:04.602Z,13736
2017-07-03T09:41:04.880Z,14348
2017-07-03T09:42:05.209Z,13916
2017-07-03T09:43:04.562Z,13424
2017-07-03T09:44:04.880Z,12196
2017-07-03T09:45:04.898Z,10688
2017-07-03T09:46:04.879Z,8920
2017-07-03T09:47:05.210Z,8412
2017-07-03T09:48:04.561Z,9268
2017-07-03T09:49:05.205Z,9176
2017-07-03T09:50:04.877Z,8356
2017-07-03T09:51:05.198Z,7040
2017-07-03T09:52:04.576Z,6700
2017-07-03T09:53:04.882Z,5988
2017-07-03T09:54:04.891Z,6420
2017-07-03T09:55:04.878Z,6176
2017-07-03T09:56:05.225Z,6716
2017-07-03T09:57:04.560Z,8256
2017-07-03T09:58:05.218Z,8704
2017-07-03T09:59:04.878Z,8800
2017-07-03T10:00:04.882Z,8424
2017-07-03T10:01:05.216Z,8752
2017-07-03T10:02:04.882Z,9132
2017-07-03T10:03:04.887Z,9556
2017-07-03T10:04:04.874Z,8956
2017-07-03T10:05:05.200Z,9520
2017-07-03T10:06:05.207Z,11684
2017-07-03T10:07:05.211Z,12924
2017-07-03T10:08:04.883Z,14316
2017-07-03T10:09:04.886Z,14004
2017-07-03T10:10:04.880Z,13212
2017-07-03T10:11:04.894Z,12996
2017-07-03T10:12:05.205Z,12768
2017-07-03T10:13:04.902Z,12108
2017-07-03T10:14:05.213Z,11860
2017-07-03T10:15:04.579Z,11628
2017-07-03T10:16:04.923Z,11820
2017-07-03T10:17:04.873Z,12136
2017-07-03T10:18:04.561Z,12032
2017-07-03T10:19:04.559Z,11964
2017-07-03T10:20:04.881Z,12772
2017-07-03T10:21:04.898Z,13616
2017-07-03T10:22:05.223Z,13876
2017-07-03T10:23:05.216Z,11928
2017-07-03T10:24:04.917Z,9120
2017-07-03T10:25:05.206Z,7280
2017-07-03T10:26:04.890Z,7152
2017-07-03T10:27:04.905Z,6820
2017-07-03T10:28:04.884Z,8384
2017-07-03T10:29:04.886Z,9588
2017-07-03T10:30:04.888Z,10324
2017-07-03T10:31:05.204Z,10084
2017-07-03T10:32:04.896Z,10412
2017-07-03T10:33:04.559Z,9760
2017-07-03T10:34:04.570Z,9048
2017-07-03T10:35:05.230Z,10780
2017-07-03T10:36:04.884Z,10960
2017-07-03T10:37:05.206Z,11452
2017-07-03T10:38:04.887Z,11456
2017-07-03T10:39:04.882Z,10772
2017-07-03T10:40:04.901Z,9804
2017-07-03T10:41:04.911Z,8652
2017-07-03T10:42:04.929Z,7724
2017-07-03T10:43:05.206Z,6796
2017-07-03T10:44:04.882Z,5548
2017-07-03T10:45:05.211Z,5672
2017-07-03T10:46:04.563Z,5768
2017-07-03T10:47:05.205Z,5904
2017-07-03T10:48:04.886Z,6556
2017-07-03T10:49:05.223Z,7956
2017-07-03T10:50:04.593Z,8664
2017-07-03T10:51:04.888Z,9248
2017-07-03T10:52:05.206Z,9236
2017-07-03T10:53:05.212Z,9040
2017-07-03T10:54:05.209Z,7980
2017-07-03T10:55:04.573Z,7500
2017-07-03T10:56:05.227Z,7080
2017-07-03T10:57:05.221Z,7192
2017-07-03T10:58:04.888Z,7412
2017-07-03T10:59:04.589Z,7716
2017-07-03T11:00:04.949Z,8268
2017-07-03T11:01:04.906Z,9780
2017-07-03T11:02:05.214Z,9796
2017-07-03T11:03:04.891Z,10724
2017-07-03T11:04:05.211Z,12060
2017-07-03T11:05:04.566Z,13428
2017-07-03T11:06:04.575Z,12808
2017-07-03T11:07:04.889Z,12512
2017-07-03T11:08:04.910Z,12152
2017-07-03T11:09:04.908Z,11108
2017-07-03T11:10:04.887Z,10868
2017-07-03T11:11:04.909Z,9520
2017-07-03T11:12:04.893Z,8592
2017-07-03T11:13:04.895Z,8032
2017-07-03T11:14:04.912Z,8072
2017-07-03T11:15:04.891Z,7540
2017-07-03T11:16:05.235Z,7568
2017-07-03T11:17:04.931Z,7616
2017-07-03T11:18:04.579Z,7812
2017-07-03T11:19:04.930Z,8748
2017-07-03T11:20:04.893Z,8316
2017-07-03T11:21:04.593Z,7728
2017-07-03T11:22:04.900Z,7336
2017-07-03T11:23:04.579Z,7292
2017-07-03T11:24:05.227Z,7208
2017-07-03T11:25:04.594Z,7596
2017-07-03T11:26:04.899Z,7788
2017-07-03T11:27:04.902Z,7964
2017-07-03T11:28:05.226Z,7004
2017-07-03T11:29:05.262Z,6980
2017-07-03T11:30:05.233Z,6924
2017-07-03T11:31:04.258Z,6936
2017-07-03T11:32:05.224Z,6896
2017-07-03T11:33:04.956Z,7116
2017-07-03T11:34:04.921Z,6992
2017-07-03T11:35:05.252Z,6844
2017-07-03T11:36:04.916Z,7416
2017-07-03T11:37:04.914Z,7752
2017-07-03T11:38:05.233Z,8660
2017-07-03T11:39:05.232Z,7852
2017-07-03T11:40:05.247Z,7020
2017-07-03T11:41:04.582Z,7612
2017-07-03T11:42:04.916Z,8108
2017-07-03T11:43:04.942Z,8120
2017-07-03T11:44:04.642Z,8968
2017-07-03T11:45:04.585Z,9808
2017-07-03T11:46:04.906Z,9504
2017-07-03T11:47:05.249Z,9124
2017-07-03T11:48:05.270Z,8672
2017-07-03T11:49:04.919Z,8784
2017-07-03T11:50:04.926Z,8756
2017-07-03T11:51:04.940Z,9708
2017-07-03T11:52:05.232Z,11384
2017-07-03T11:53:05.237Z,10644
2017-07-03T11:54:05.291Z,9392
2017-07-03T11:55:04.917Z,8052
2017-07-03T11:56:04.932Z,7208
2017-07-03T11:57:04.619Z,6224
2017-07-03T11:58:04.921Z,5200
2017-07-03T11:59:05.250Z,4968
2017-07-03T12:00:04.927Z,5132
2017-07-03T12:01:04.285Z,4904
2017-07-03T12:02:05.253Z,4788
2017-07-03T12:03:05.273Z,5092
2017-07-03T12:04:04.923Z,5408
2017-07-03T12:05:05.264Z,4808
2017-07-03T12:06:05.243Z,4752
2017-07-03T12:07:04.629Z,5052
2017-07-03T12:08:04.612Z,4920
2017-07-03T12:09:04.943Z,4828
2017-07-03T12:10:04.602Z,4840
2017-07-03T12:11:04.928Z,5184
2017-07-03T12:12:04.947Z,5592
2017-07-03T12:13:04.954Z,5952
2017-07-03T12:14:04.619Z,6232
2017-07-03T12:15:04.952Z,6120
2017-07-03T12:16:05.259Z,5692
2017-07-03T12:17:05.248Z,5196
2017-07-03T12:18:04.925Z,4884
2017-07-03T12:19:04.946Z,4572
2017-07-03T12:20:04.608Z,4476
2017-07-03T12:21:05.253Z,4652
2017-07-03T12:22:04.609Z,4972
2017-07-03T12:23:04.608Z,5268
2017-07-03T12:24:04.931Z,5516
2017-07-03T12:25:04.606Z,5896
2017-07-03T12:26:04.947Z,5708
2017-07-03T12:27:04.629Z,5352
2017-07-03T12:28:04.932Z,4976
2017-07-03T12:29:04.937Z,4592
2017-07-03T12:30:04.952Z,4396
2017-07-03T12:31:04.939Z,4264
2017-07-03T12:32:04.936Z,4408
2017-07-03T12:33:04.942Z,4588
2017-07-03T12:34:04.613Z,4472
2017-07-03T12:35:04.941Z,3840
2017-07-03T12:36:04.937Z,4352
2017-07-03T12:37:05.258Z,4584
2017-07-03T12:38:04.987Z,4116
2017-07-03T12:39:04.939Z,4648
2017-07-03T12:40:04.960Z,4784
2017-07-03T12:41:04.943Z,5264
2017-07-03T12:42:04.943Z,5852
2017-07-03T12:43:04.637Z,6392
2017-07-03T12:44:05.289Z,6692
2017-07-03T12:45:04.970Z,6612
2017-07-03T12:46:04.959Z,6068
2017-07-03T12:47:04.631Z,5312
2017-07-03T12:48:04.952Z,4736
2017-07-03T12:49:05.271Z,4664
2017-07-03T12:50:04.982Z,4716
2017-07-03T12:51:05.286Z,4796
2017-07-03T12:52:04.949Z,5184
2017-07-03T12:53:04.948Z,6084
2017-07-03T12:54:05.267Z,7588
2017-07-03T12:55:05.275Z,8488
2017-07-03T12:56:04.626Z,9212
2017-07-03T12:57:05.267Z,9548
2017-07-03T12:58:04.628Z,9272
2017-07-03T12:59:05.275Z,9292
2017-07-03T13:00:04.629Z,8848
2017-07-03T13:01:04.648Z,9080
2017-07-03T13:02:05.332Z,9536
2017-07-03T13:03:04.643Z,9624
2017-07-03T13:04:05.277Z,9344
2017-07-03T13:05:04.966Z,8792
2017-07-03T13:06:04.632Z,9520
2017-07-03T13:07:05.285Z,9888
2017-07-03T13:08:04.652Z,9120
2017-07-03T13:09:05.281Z,8648
2017-07-03T13:10:04.957Z,8068
2017-07-03T13:11:04.989Z,7236
2017-07-03T13:12:05.284Z,7120
2017-07-03T13:13:05.339Z,7912
2017-07-03T13:14:05.284Z,8704
2017-07-03T13:15:04.647Z,9616
2017-07-03T13:16:05.300Z,10196
2017-07-03T13:17:05.309Z,10944
2017-07-03T13:18:05.306Z,11924
2017-07-03T13:19:04.967Z,12652
2017-07-03T13:20:04.997Z,12512
2017-07-03T13:21:04.969Z,12428
2017-07-03T13:22:04.986Z,11456
2017-07-03T13:23:04.328Z,10596
2017-07-03T13:24:04.651Z,10524
2017-07-03T13:25:04.976Z,10296
2017-07-03T13:26:05.009Z,9960
2017-07-03T13:27:04.985Z,10092
2017-07-03T13:28:04.980Z,10284
2017-07-03T13:29:04.984Z,10116
2017-07-03T13:30:05.309Z,8556
2017-07-03T13:31:05.306Z,7388
2017-07-03T13:32:04.984Z,6904